createdAt,value
2024-03-06T00:01:43.777Z,75.89
2024-03-06T00:04:11.697Z,76.00
2024-03-06T00:06:39.446Z,75.64
2024-03-06T00:09:09.303Z,75.75
2024-03-06T00:11:37.214Z,76.18
2024-03-06T00:14:08.713Z,76.14
2024-03-06T00:16:36.549Z,75.88
2024-03-06T00:19:04.563Z,75.82
2024-03-06T00:21:32.704Z,75.99
2024-03-06T00:24:00.716Z,76.02
2024-03-06T00:26:28.506Z,75.91
2024-03-06T00:28:58.769Z,76.13
2024-03-06T00:31:26.714Z,76.08
2024-03-06T00:33:54.641Z,76.07
2024-03-06T00:36:23.903Z,75.80
2024-03-06T00:38:51.834Z,75.98
2024-03-06T00:41:20.640Z,75.84
2024-03-06T00:43:48.740Z,76.21
2024-03-06T00:46:16.623Z,75.82
2024-03-06T00:48:44.437Z,75.94
2024-03-06T00:51:12.180Z,75.78
2024-03-06T00:53:40.034Z,75.97
2024-03-06T00:56:08.517Z,75.78
2024-03-06T00:58:36.598Z,75.94
2024-03-06T01:01:05.596Z,75.87
2024-03-06T01:03:33.827Z,75.94
2024-03-06T01:06:01.885Z,76.22
2024-03-06T01:08:29.916Z,75.89
2024-03-06T01:10:57.765Z,76.28
2024-03-06T01:13:26.943Z,76.18
2024-03-06T01:15:55.501Z,76.27
2024-03-06T01:18:23.403Z,76.32
2024-03-06T01:20:51.411Z,76.41
2024-03-06T01:23:19.446Z,76.38
2024-03-06T01:25:47.380Z,76.53
2024-03-06T01:28:15.450Z,76.54
2024-03-06T01:30:43.289Z,76.40
2024-03-06T01:33:11.201Z,76.49
2024-03-06T01:35:40.345Z,76.57
2024-03-06T01:38:11.728Z,76.57
2024-03-06T01:40:45.823Z,76.44
2024-03-06T01:43:24.055Z,76.64
2024-03-06T01:45:54.202Z,76.48
2024-03-06T01:48:32.575Z,76.60
2024-03-06T01:51:01.405Z,76.64
2024-03-06T01:53:31.663Z,76.69
2024-03-06T01:56:00.004Z,76.66
2024-03-06T01:58:32.143Z,76.51
2024-03-06T02:01:00.245Z,76.56
2024-03-06T02:03:28.239Z,76.65
2024-03-06T02:05:56.513Z,76.40
2024-03-06T02:08:24.489Z,76.50
2024-03-06T02:10:52.462Z,76.24
2024-03-06T02:13:20.566Z,76.30
2024-03-06T02:15:49.277Z,76.22
2024-03-06T02:18:17.131Z,76.47
2024-03-06T02:20:47.058Z,76.38
2024-03-06T02:23:15.986Z,76.34
2024-03-06T02:25:43.943Z,76.50
2024-03-06T02:28:11.762Z,76.51
2024-03-06T02:30:39.549Z,76.49
2024-03-06T02:33:10.746Z,76.49
2024-03-06T02:35:41.208Z,76.44
2024-03-06T02:38:09.109Z,76.38
2024-03-06T02:40:37.073Z,76.28
2024-03-06T02:43:08.663Z,76.47
2024-03-06T02:45:36.439Z,76.46
2024-03-06T02:48:04.684Z,76.40
2024-03-06T02:50:32.521Z,76.54
2024-03-06T02:53:00.345Z,76.48
2024-03-06T02:55:28.225Z,76.50
2024-03-06T02:57:56.054Z,76.43
2024-03-06T03:00:23.931Z,76.50
2024-03-06T03:02:51.697Z,76.63
2024-03-06T03:05:19.532Z,76.65
2024-03-06T03:07:47.579Z,76.47
2024-03-06T03:10:15.655Z,76.43
2024-03-06T03:12:45.936Z,76.52
2024-03-06T03:15:13.878Z,76.61
2024-03-06T03:17:42.674Z,76.54
2024-03-06T03:20:11.843Z,76.45
2024-03-06T03:22:41.304Z,76.60
2024-03-06T03:25:13.303Z,76.45
2024-03-06T03:27:41.724Z,76.41
2024-03-06T03:30:10.695Z,76.51
2024-03-06T03:32:39.078Z,76.43
2024-03-06T03:35:07.890Z,76.49
2024-03-06T03:37:35.759Z,76.31
2024-03-06T03:40:04.360Z,76.40
2024-03-06T03:42:32.476Z,76.48
2024-03-06T03:45:00.336Z,76.49
2024-03-06T03:47:29.236Z,76.27
2024-03-06T03:50:03.621Z,76.34
2024-03-06T03:52:43.589Z,76.23
2024-03-06T03:55:12.453Z,76.32
2024-03-06T03:57:40.725Z,76.14
2024-03-06T04:00:12.652Z,76.24
2024-03-06T04:02:40.779Z,76.15
2024-03-06T04:05:08.966Z,76.06
2024-03-06T04:07:37.758Z,76.11
2024-03-06T04:10:06.088Z,76.31
2024-03-06T04:12:33.839Z,76.12
2024-03-06T04:15:02.004Z,76.10
2024-03-06T04:17:29.913Z,76.10
2024-03-06T04:19:57.822Z,76.08
2024-03-06T04:22:25.756Z,76.05
2024-03-06T04:24:53.504Z,76.18
2024-03-06T04:27:21.426Z,76.04
2024-03-06T04:29:49.381Z,75.85
2024-03-06T04:32:17.166Z,76.05
2024-03-06T04:34:45.136Z,76.09
2024-03-06T04:37:13.215Z,76.03
2024-03-06T04:39:42.300Z,76.16
2024-03-06T04:42:10.632Z,76.17
2024-03-06T04:44:38.536Z,76.01
2024-03-06T04:47:06.363Z,76.13
2024-03-06T04:49:38.144Z,76.07
2024-03-06T04:52:06.107Z,76.08
2024-03-06T04:54:34.481Z,75.97
2024-03-06T04:57:02.348Z,75.96
2024-03-06T04:59:32.566Z,76.01
2024-03-06T05:02:00.445Z,75.91
2024-03-06T05:59:48.088Z,76.24
2024-03-06T06:02:17.655Z,76.44
2024-03-06T06:04:51.991Z,76.47
2024-03-06T06:07:28.408Z,76.40
2024-03-06T06:09:56.259Z,76.44
2024-03-06T06:12:24.067Z,76.68
2024-03-06T06:14:52.033Z,76.63
2024-03-06T06:17:20.687Z,76.59
2024-03-06T06:19:49.183Z,76.62
2024-03-06T06:22:17.020Z,76.70
2024-03-06T06:24:47.921Z,76.78
2024-03-06T06:27:16.087Z,76.70
2024-03-06T06:29:43.954Z,76.98
2024-03-06T06:32:11.900Z,76.83
2024-03-06T06:34:39.784Z,76.84
2024-03-06T06:37:07.789Z,77.00
2024-03-06T06:39:35.716Z,77.04
2024-03-06T06:42:04.444Z,77.13
2024-03-06T06:44:32.625Z,77.27
2024-03-06T06:47:00.877Z,77.27
2024-03-06T06:49:28.789Z,77.33
2024-03-06T06:51:57.024Z,77.39
2024-03-06T06:54:24.864Z,77.42
2024-03-06T06:56:52.757Z,77.35
2024-03-06T06:59:23.307Z,77.27
2024-03-06T07:01:51.739Z,77.35
2024-03-06T07:04:21.568Z,77.23
2024-03-06T07:06:49.497Z,77.33
2024-03-06T07:09:18.396Z,77.47
2024-03-06T07:11:46.323Z,77.46
2024-03-06T07:14:14.710Z,77.62
2024-03-06T07:16:46.689Z,77.58
2024-03-06T07:19:14.635Z,77.80
2024-03-06T07:21:42.600Z,77.89
2024-03-06T07:24:10.505Z,77.58
2024-03-06T07:26:38.962Z,77.47
2024-03-06T07:29:14.157Z,77.54
2024-03-06T07:31:42.838Z,77.58
2024-03-06T07:34:11.000Z,77.73
2024-03-06T07:36:38.964Z,77.49
2024-03-06T07:39:07.086Z,77.64
2024-03-06T07:41:38.219Z,77.75
2024-03-06T07:44:06.351Z,77.77
2024-03-06T07:46:34.211Z,77.84
2024-03-06T07:49:04.241Z,77.88
2024-03-06T07:51:33.055Z,77.83
2024-03-06T07:54:00.443Z,78.27
2024-03-06T07:56:28.200Z,78.28
2024-03-06T07:58:55.928Z,78.04
2024-03-06T08:01:24.444Z,77.85
2024-03-06T08:03:51.432Z,77.82
2024-03-06T08:06:19.728Z,77.54
2024-03-06T08:08:46.784Z,77.66
2024-03-06T08:11:14.916Z,77.68
2024-03-06T08:13:42.521Z,77.76
2024-03-06T08:16:09.507Z,77.71
2024-03-06T08:18:38.002Z,77.68
2024-03-06T08:21:07.309Z,77.64
2024-03-06T08:23:34.663Z,77.71
2024-03-06T08:26:02.069Z,77.39
2024-03-06T08:28:29.171Z,77.46
2024-03-06T08:30:56.144Z,77.31
2024-03-06T08:33:24.413Z,77.43
2024-03-06T08:35:52.000Z,77.34
2024-03-06T08:38:19.188Z,77.15
2024-03-06T08:40:49.964Z,76.52
2024-03-06T08:43:17.308Z,75.99
2024-03-06T08:45:44.413Z,76.20
2024-03-06T08:48:12.896Z,76.19
2024-03-06T08:50:40.937Z,76.05
2024-03-06T08:53:08.454Z,76.29
2024-03-06T08:55:35.317Z,75.75
2024-03-06T08:58:03.060Z,75.17
2024-03-06T09:00:30.203Z,75.66
2024-03-06T09:02:57.379Z,75.09
2024-03-06T09:05:24.504Z,75.20
2024-03-06T09:07:51.622Z,74.81
2024-03-06T09:10:20.446Z,74.81
2024-03-06T09:15:16.194Z,74.70
2024-03-06T09:17:43.897Z,74.13
2024-03-06T09:20:12.646Z,74.15
2024-03-06T09:22:41.314Z,73.90
2024-03-06T09:25:09.268Z,73.90
2024-03-06T09:27:37.194Z,73.25
2024-03-06T09:30:04.763Z,72.50
2024-03-06T09:32:32.542Z,71.71
2024-03-06T09:35:00.661Z,71.25
2024-03-06T09:37:29.270Z,71.66
2024-03-06T09:39:58.104Z,71.15
2024-03-06T09:42:25.664Z,71.42
2024-03-06T09:44:53.020Z,71.13
2024-03-06T09:47:28.270Z,71.67
2024-03-06T09:49:55.748Z,71.70
2024-03-06T09:52:26.465Z,71.50
2024-03-06T09:54:56.121Z,71.05
2024-03-06T09:57:23.119Z,70.54
2024-03-06T09:59:50.152Z,70.11
2024-03-06T10:02:35.450Z,69.76
2024-03-06T10:05:02.645Z,69.93
2024-03-06T10:07:29.735Z,69.43
2024-03-06T10:09:58.271Z,69.20
2024-03-06T10:12:25.697Z,69.68
2024-03-06T10:14:53.633Z,69.33
2024-03-06T10:17:24.608Z,68.63
2024-03-06T10:19:53.135Z,68.66
2024-03-06T10:22:27.164Z,68.57
2024-03-06T10:24:58.249Z,68.47
2024-03-06T10:27:25.298Z,67.81
2024-03-06T10:30:06.663Z,67.71
2024-03-06T10:32:34.333Z,66.82
2024-03-06T10:35:01.652Z,67.10
2024-03-06T10:37:30.464Z,67.04
2024-03-06T10:40:00.149Z,66.95
2024-03-06T10:42:30.083Z,66.47
2024-03-06T10:44:57.679Z,66.90
2024-03-06T10:47:27.044Z,67.20
2024-03-06T10:49:55.067Z,67.22
2024-03-06T10:52:22.941Z,67.37
2024-03-06T10:54:50.161Z,67.07
2024-03-06T10:57:17.877Z,67.25
2024-03-06T10:59:45.088Z,67.35
2024-03-06T11:02:14.323Z,67.10
2024-03-06T11:04:41.873Z,66.94
2024-03-06T11:07:12.634Z,66.91
2024-03-06T11:09:41.635Z,67.48
2024-03-06T11:12:08.946Z,67.40
2024-03-06T11:14:40.891Z,67.80
2024-03-06T11:17:10.993Z,68.11
2024-03-06T11:20:07.669Z,67.92
2024-03-06T11:23:03.714Z,68.05
2024-03-06T11:25:53.202Z,68.22
2024-03-06T11:28:21.454Z,68.40
2024-03-06T11:30:48.761Z,68.06
2024-03-06T11:33:19.928Z,68.47
2024-03-06T11:36:18.984Z,68.82
2024-03-06T11:39:08.524Z,68.63
2024-03-06T11:41:45.298Z,68.86
2024-03-06T11:44:24.581Z,68.73
2024-03-06T11:47:06.859Z,68.65
2024-03-06T11:49:41.765Z,68.34
2024-03-06T11:52:09.889Z,68.43
2024-03-06T11:54:37.279Z,68.46
2024-03-06T11:57:05.757Z,68.65
2024-03-06T11:59:37.372Z,68.44
2024-03-06T12:02:07.407Z,68.46
2024-03-06T12:04:40.046Z,68.62
2024-03-06T12:07:08.277Z,67.69
2024-03-06T12:09:42.238Z,67.67
2024-03-06T12:12:12.144Z,67.59
2024-03-06T12:14:43.089Z,67.77
2024-03-06T12:17:18.102Z,67.42
2024-03-06T12:19:46.663Z,67.28
2024-03-06T12:22:15.918Z,67.75
2024-03-06T12:24:43.317Z,67.48
2024-03-06T12:27:10.406Z,67.44
2024-03-06T12:29:39.303Z,67.69
2024-03-06T12:32:18.692Z,67.09
2024-03-06T12:34:46.067Z,66.40
2024-03-06T12:37:13.256Z,66.55
2024-03-06T12:39:43.408Z,65.79
2024-03-06T12:42:13.282Z,65.95
2024-03-06T12:44:42.279Z,65.72
2024-03-06T12:47:09.403Z,66.18
2024-03-06T12:49:36.383Z,66.12
2024-03-06T12:52:06.239Z,66.78
2024-03-06T12:54:33.510Z,66.49
2024-03-06T12:57:00.773Z,66.63
2024-03-06T12:59:28.084Z,66.70
2024-03-06T13:01:55.708Z,66.82
2024-03-06T13:04:22.938Z,66.54
2024-03-06T13:06:50.113Z,66.72
2024-03-06T13:09:17.342Z,67.02
2024-03-06T13:11:44.574Z,67.21
2024-03-06T13:14:13.749Z,66.95
2024-03-06T13:16:41.357Z,66.93
2024-03-06T13:19:09.530Z,67.30
2024-03-06T13:21:37.229Z,67.48
2024-03-06T13:24:04.668Z,67.72
2024-03-06T13:26:32.008Z,67.92
2024-03-06T13:29:01.120Z,67.88
2024-03-06T13:31:28.523Z,68.00
2024-03-06T13:33:55.513Z,68.31
2024-03-06T13:36:23.726Z,68.02
2024-03-06T13:38:51.171Z,67.94
2024-03-06T13:41:18.641Z,68.24
2024-03-06T13:43:45.752Z,68.38
2024-03-06T13:46:12.970Z,68.57
2024-03-06T13:48:40.040Z,68.27
2024-03-06T13:51:07.627Z,68.34
2024-03-06T13:53:35.252Z,68.35
2024-03-06T13:56:02.509Z,68.42
2024-03-06T13:58:29.561Z,68.88
2024-03-06T14:00:59.122Z,68.66
2024-03-06T14:03:27.620Z,68.70
2024-03-06T14:05:55.784Z,68.61
2024-03-06T14:08:27.372Z,68.54
2024-03-06T14:11:02.596Z,68.87
2024-03-06T14:13:36.133Z,68.81
2024-03-06T14:18:47.220Z,68.99
2024-03-06T14:21:20.973Z,69.09
2024-03-06T14:23:59.527Z,69.09
2024-03-06T14:44:52.681Z,69.71
2024-03-06T14:47:20.537Z,69.66
2024-03-06T14:49:47.503Z,69.65
2024-03-06T14:52:14.544Z,69.84
2024-03-06T14:54:45.591Z,70.02
2024-03-06T14:57:13.544Z,70.33
2024-03-06T14:59:41.092Z,70.08
2024-03-06T15:02:08.137Z,70.30
2024-03-06T15:04:35.031Z,70.58
2024-03-06T15:07:02.213Z,70.94
2024-03-06T15:09:29.835Z,71.13
2024-03-06T15:11:58.308Z,71.39
2024-03-06T15:14:26.263Z,71.42
2024-03-06T15:16:54.617Z,71.76
2024-03-06T15:19:22.408Z,71.67
2024-03-06T15:21:49.313Z,71.89
2024-03-06T15:24:16.327Z,72.29
2024-03-06T15:26:44.157Z,72.80
2024-03-06T15:29:13.161Z,72.52
2024-03-06T15:31:40.156Z,72.77
2024-03-06T15:34:07.951Z,73.29
2024-03-06T15:36:34.961Z,73.00
2024-03-06T15:39:02.074Z,73.10
2024-03-06T15:41:29.204Z,73.22
2024-03-06T15:43:56.085Z,73.04
2024-03-06T15:46:23.542Z,73.60
2024-03-06T15:48:50.665Z,73.72
2024-03-06T15:51:17.840Z,73.61
2024-03-06T15:53:47.314Z,73.85
2024-03-06T15:56:15.532Z,74.08
2024-03-06T15:58:43.508Z,74.24
2024-03-06T16:01:10.692Z,74.39
2024-03-06T16:03:38.969Z,74.60
2024-03-06T16:06:14.462Z,74.83
2024-03-06T16:08:45.558Z,74.90
2024-03-06T16:11:12.656Z,74.94
2024-03-06T16:13:39.874Z,74.98
2024-03-06T16:16:07.623Z,75.10
2024-03-06T16:18:34.798Z,75.34
2024-03-06T16:21:03.564Z,75.23
2024-03-06T16:23:30.792Z,75.66
2024-03-06T16:25:57.679Z,75.57
2024-03-06T16:28:24.786Z,75.80
2024-03-06T16:30:52.492Z,75.86
2024-03-06T16:33:19.872Z,75.77
2024-03-06T16:35:46.906Z,75.99
2024-03-06T16:38:15.278Z,75.80
2024-03-06T16:40:42.474Z,76.11
2024-03-06T16:43:09.467Z,76.33
2024-03-06T16:45:36.471Z,76.40
2024-03-06T16:48:05.623Z,76.29
2024-03-06T16:50:33.934Z,76.45
2024-03-06T16:53:01.084Z,76.54
2024-03-06T16:55:28.060Z,76.56
2024-03-06T16:57:54.948Z,76.53
2024-03-06T17:00:23.619Z,76.97
2024-03-06T17:02:51.011Z,77.00
2024-03-06T17:05:19.322Z,77.08
2024-03-06T17:07:49.251Z,77.06
2024-03-06T17:10:17.306Z,77.38
2024-03-06T17:12:45.127Z,77.23
2024-03-06T17:15:14.000Z,77.35
2024-03-06T17:17:42.262Z,77.44
2024-03-06T17:20:10.527Z,77.52
2024-03-06T17:22:38.607Z,77.83
2024-03-06T17:25:09.053Z,77.56
2024-03-06T17:27:37.394Z,77.84
2024-03-06T17:30:06.533Z,77.68
2024-03-06T17:32:34.571Z,78.06
2024-03-06T17:35:04.975Z,78.12
2024-03-06T17:37:33.037Z,78.28
2024-03-06T17:40:01.229Z,77.97
2024-03-06T17:42:29.360Z,78.43
2024-03-06T17:44:57.324Z,78.40
2024-03-06T17:47:25.404Z,78.45
2024-03-06T17:49:53.370Z,78.42
2024-03-06T17:52:21.246Z,78.42
2024-03-06T17:54:49.043Z,78.48
2024-03-06T17:57:16.927Z,78.47
2024-03-06T17:59:45.387Z,78.87
2024-03-06T18:02:13.339Z,78.89
2024-03-06T18:04:41.227Z,78.86
2024-03-06T18:07:09.204Z,79.09
2024-03-06T18:09:37.789Z,78.80
2024-03-06T18:12:05.917Z,79.00
2024-03-06T18:14:34.384Z,79.17
2024-03-06T18:17:02.226Z,79.18
2024-03-06T18:19:30.153Z,79.39
2024-03-06T18:21:58.213Z,79.41
2024-03-06T18:24:27.030Z,79.46
2024-03-06T18:26:55.052Z,79.59
2024-03-06T18:29:24.388Z,79.41
2024-03-06T18:31:52.245Z,79.45
2024-03-06T18:34:20.295Z,79.50
2024-03-06T18:36:48.581Z,79.60
2024-03-06T18:39:16.759Z,79.52
2024-03-06T18:41:45.985Z,79.86
2024-03-06T18:44:14.638Z,79.67
2024-03-06T18:46:42.890Z,79.71
2024-03-06T18:49:12.650Z,79.95
2024-03-06T18:51:40.594Z,79.80
2024-03-06T18:54:08.625Z,80.14
2024-03-06T18:56:36.983Z,79.94
2024-03-06T18:59:05.288Z,80.26
2024-03-06T19:01:33.158Z,80.23
2024-03-06T19:04:01.672Z,80.46
2024-03-06T19:06:29.559Z,80.17
2024-03-06T19:08:57.744Z,80.51
2024-03-06T19:11:25.641Z,80.37
2024-03-06T19:13:53.617Z,80.19
2024-03-06T19:16:22.006Z,80.64
2024-03-06T19:18:49.962Z,80.44
2024-03-06T19:21:18.545Z,80.25
2024-03-06T19:23:46.412Z,80.53
2024-03-06T19:26:14.298Z,80.53
2024-03-06T19:28:45.473Z,80.67
2024-03-06T19:31:13.940Z,80.53
2024-03-06T19:33:41.928Z,80.65
2024-03-06T19:36:10.215Z,80.50
2024-03-06T19:38:38.247Z,80.28
2024-03-06T19:41:06.214Z,80.29
2024-03-06T19:43:39.858Z,80.37
2024-03-06T19:46:08.603Z,80.50
2024-03-06T19:48:36.962Z,80.28
2024-03-06T19:51:06.125Z,80.44
2024-03-06T19:53:34.840Z,80.44
2024-03-06T19:56:03.825Z,80.62
2024-03-06T19:58:32.768Z,80.35
2024-03-06T20:01:00.737Z,80.34
2024-03-06T20:03:28.663Z,80.54
2024-03-06T20:05:56.724Z,80.44
2024-03-06T20:08:28.962Z,80.22
2024-03-06T20:10:57.068Z,80.39
2024-03-06T20:13:25.068Z,80.19
2024-03-06T20:15:52.983Z,80.26
2024-03-06T20:18:20.967Z,80.42
2024-03-06T20:20:49.438Z,80.27
2024-03-06T20:23:17.464Z,80.23
2024-03-06T20:25:45.349Z,80.32
2024-03-06T20:28:13.247Z,80.25
2024-03-06T20:30:46.530Z,80.00
2024-03-06T20:33:14.965Z,80.31
2024-03-06T20:35:43.654Z,80.05
2024-03-06T20:38:16.693Z,80.21
2024-03-06T20:40:48.034Z,79.83
2024-03-06T20:43:16.388Z,79.95
2024-03-06T20:45:45.495Z,79.89
2024-03-06T20:48:14.160Z,80.12
2024-03-06T20:50:42.339Z,79.93
2024-03-06T20:53:10.479Z,80.12
2024-03-06T20:55:38.623Z,80.02
2024-03-06T20:58:10.113Z,79.94
2024-03-06T21:00:37.994Z,80.21
2024-03-06T21:03:06.003Z,79.91
2024-03-06T21:05:34.500Z,79.96
2024-03-06T21:08:02.449Z,80.04
2024-03-06T21:10:30.961Z,79.97
2024-03-06T21:12:58.938Z,80.05
2024-03-06T21:15:27.968Z,80.07
2024-03-06T21:17:57.233Z,79.99
2024-03-06T21:20:25.278Z,79.84
2024-03-06T21:22:53.224Z,79.97
2024-03-06T21:25:21.599Z,79.83
2024-03-06T21:27:49.503Z,79.75
2024-03-06T21:30:17.530Z,79.76
2024-03-06T21:32:46.095Z,79.84
2024-03-06T21:35:14.384Z,79.60
2024-03-06T21:37:42.340Z,79.69
2024-03-06T21:40:10.718Z,79.42
2024-03-06T21:42:38.786Z,79.44
2024-03-06T21:45:07.253Z,79.59
2024-03-06T21:47:35.837Z,79.48
2024-03-06T21:50:07.217Z,79.49
2024-03-06T21:52:35.378Z,79.36
2024-03-06T21:55:04.288Z,79.37
2024-03-06T21:57:32.347Z,79.30
2024-03-06T22:00:00.305Z,79.03
2024-03-06T22:02:28.459Z,79.22
2024-03-06T22:04:56.309Z,79.29
2024-03-06T22:07:24.209Z,79.23
2024-03-06T22:09:52.087Z,78.94
2024-03-06T22:12:20.117Z,79.14
2024-03-06T22:14:48.349Z,78.95
2024-03-06T22:17:16.412Z,79.09
2024-03-06T22:19:44.363Z,79.03
2024-03-06T22:22:13.374Z,79.02
2024-03-06T22:24:41.406Z,79.03
2024-03-06T22:27:09.489Z,78.92
2024-03-06T22:29:39.147Z,79.06
2024-03-06T22:32:07.411Z,78.96
2024-03-06T22:34:37.596Z,79.09
2024-03-06T22:37:05.767Z,78.97
2024-03-06T22:39:34.943Z,78.99
2024-03-06T22:42:02.866Z,78.91
2024-03-06T22:44:30.819Z,78.90
2024-03-06T22:46:58.770Z,78.84
2024-03-06T22:49:26.730Z,78.84
2024-03-06T22:51:55.016Z,78.89
2024-03-06T22:54:22.910Z,78.81
2024-03-06T22:56:50.894Z,78.95
2024-03-06T22:59:18.753Z,78.58
2024-03-06T23:01:49.400Z,78.67
2024-03-06T23:04:19.037Z,78.62
2024-03-06T23:06:47.198Z,78.51
2024-03-06T23:09:15.125Z,78.65
2024-03-06T23:11:43.174Z,78.63
2024-03-06T23:14:11.121Z,78.68
2024-03-06T23:16:38.989Z,78.63
2024-03-06T23:19:06.963Z,78.53
2024-03-06T23:21:36.652Z,78.53
2024-03-06T23:24:07.502Z,78.57
2024-03-06T23:26:35.573Z,78.73
2024-03-06T23:29:05.016Z,78.29
2024-03-06T23:31:32.995Z,78.43
2024-03-06T23:34:01.285Z,78.54
2024-03-06T23:36:31.900Z,78.50
2024-03-06T23:38:59.810Z,78.55
2024-03-06T23:41:30.272Z,78.36
2024-03-06T23:43:58.598Z,78.38
2024-03-06T23:46:26.478Z,78.23
2024-03-06T23:48:54.361Z,78.35
2024-03-06T23:51:22.376Z,78.30
2024-03-06T23:53:50.519Z,78.40
2024-03-06T23:56:18.684Z,78.08
2024-03-06T23:58:47.982Z,78.12
